Time;durP1;ratioP1;P1;durP2;ratioP2;P2;SDS_P1;SDS_P2;PMS_P1;PMS_P2;Temp;Humidity;BMP_temperature;BMP_pressure;BME280_temperature;BME280_humidity;BME280_pressure;Samples;Min_cycle;Max_cycle;Signal;HPM_P1;HPM_P2
2021/12/12 00:00:35;;;;;;;34.13;12.90;;;6.40;99.90;;;;;;5031211;28;20017;-75
2021/12/12 00:03:14;;;;;;;40.20;13.48;;;6.40;99.90;;;;;;5030836;28;20387;-74
2021/12/12 00:05:45;;;;;;;41.92;13.23;;;6.40;99.90;;;;;;5030960;28;20048;-74
2021/12/12 00:08:14;;;;;;;38.05;13.23;;;6.40;99.90;;;;;;5030939;28;20025;-74
2021/12/12 00:10:43;;;;;;;35.42;13.30;;;6.40;99.90;;;;;;5030363;28;20082;-74
2021/12/12 00:13:16;;;;;;;40.78;12.73;;;6.40;99.90;;;;;;5031138;28;20026;-74
2021/12/12 00:15:42;;;;;;;44.22;13.57;;;6.40;99.90;;;;;;5030592;28;20504;-74
2021/12/12 00:18:09;;;;;;;37.20;13.23;;;6.40;99.90;;;;;;5031123;28;20100;-74
2021/12/12 00:20:36;;;;;;;35.42;12.95;;;6.40;99.90;;;;;;5030531;28;20033;-74
2021/12/12 00:23:03;;;;;;;42.97;12.85;;;6.40;99.90;;;;;;5030746;28;20120;-74
2021/12/12 00:25:31;;;;;;;37.13;12.10;;;6.40;99.90;;;;;;5030364;28;20105;-74
2021/12/12 00:27:58;;;;;;;34.70;12.52;;;6.40;99.90;;;;;;5030313;28;20034;-74
2021/12/12 00:30:24;;;;;;;35.88;13.63;;;6.40;99.90;;;;;;5048407;28;20025;-74
2021/12/12 00:32:51;;;;;;;35.70;12.60;;;6.40;99.90;;;;;;5050200;28;20032;-74
2021/12/12 00:35:17;;;;;;;37.40;12.68;;;6.40;99.90;;;;;;5050180;28;20024;-74
2021/12/12 00:37:43;;;;;;;39.83;12.73;;;6.40;99.90;;;;;;5050241;28;20032;-74
2021/12/12 00:40:28;;;;;;;38.63;12.43;;;6.40;99.90;;;;;;5049890;28;20013;-74
2021/12/12 00:42:57;;;;;;;41.80;12.52;;;6.40;99.90;;;;;;5050165;28;20025;-74
2021/12/12 00:45:24;;;;;;;30.20;11.82;;;6.40;99.90;;;;;;5050064;28;20032;-74
2021/12/12 00:47:50;;;;;;;35.15;12.13;;;6.40;99.90;;;;;;5049933;28;20038;-74
2021/12/12 00:50:40;;;;;;;32.15;11.27;;;6.40;99.90;;;;;;5048577;28;20017;-73
2021/12/12 00:53:08;;;;;;;34.28;11.57;;;6.40;99.90;;;;;;5050166;28;20033;-74
2021/12/12 00:55:37;;;;;;;32.17;11.95;;;6.40;99.90;;;;;;5049743;28;20021;-74
2021/12/12 00:58:05;;;;;;;37.22;11.98;;;6.40;99.90;;;;;;5050274;28;20021;-73
2021/12/12 01:00:36;;;;;;;39.60;12.10;;;6.40;99.90;;;;;;5049677;28;20021;-74
2021/12/12 01:03:03;;;;;;;35.40;11.52;;;6.40;99.90;;;;;;5063762;28;20367;-74
2021/12/12 01:05:29;;;;;;;32.10;11.07;;;6.40;99.90;;;;;;5049595;28;20029;-74
2021/12/12 01:07:55;;;;;;;32.40;11.27;;;6.50;99.90;;;;;;5049745;28;20604;-74
2021/12/12 01:10:30;;;;;;;31.98;11.07;;;6.50;99.90;;;;;;5049814;28;20025;-74
2021/12/12 01:12:58;;;;;;;39.40;11.45;;;6.50;99.90;;;;;;5049777;28;20044;-74
2021/12/12 01:15:32;;;;;;;31.20;10.60;;;6.50;99.90;;;;;;5049975;28;20017;-74
2021/12/12 01:18:11;;;;;;;30.25;10.88;;;6.50;99.90;;;;;;5049802;28;20452;-74
2021/12/12 01:20:46;;;;;;;35.45;11.60;;;6.50;99.90;;;;;;5049473;28;20529;-74
2021/12/12 01:23:16;;;;;;;32.92;10.93;;;6.50;99.90;;;;;;5049509;28;20063;-74
2021/12/12 01:25:45;;;;;;;30.20;11.23;;;6.50;99.90;;;;;;5049468;27;20100;-74
2021/12/12 01:28:17;;;;;;;31.50;11.35;;;6.50;99.90;;;;;;5049906;28;20025;-74
2021/12/12 01:30:45;;;;;;;32.72;10.75;;;6.50;99.90;;;;;;5045036;28;20524;-74
2021/12/12 01:33:18;;;;;;;31.77;10.93;;;6.50;99.90;;;;;;5029552;28;20030;-74
2021/12/12 01:35:43;;;;;;;40.03;11.73;;;6.60;99.90;;;;;;5029781;28;20127;-74
2021/12/12 01:40:57;;;;;;;36.22;11.32;;;6.60;99.90;;;;;;5029455;28;20685;-74
2021/12/12 01:43:37;;;;;;;28.40;10.68;;;6.60;99.90;;;;;;5044738;28;20553;-74
2021/12/12 01:46:11;;;;;;;33.88;11.95;;;6.60;99.90;;;;;;5029255;28;20402;-74
2021/12/12 01:48:50;;;;;;;34.20;11.02;;;6.60;99.90;;;;;;5044649;28;20386;-74
2021/12/12 01:51:16;;;;;;;33.05;11.35;;;6.60;99.90;;;;;;5029069;28;20025;-74
2021/12/12 01:53:48;;;;;;;34.53;12.48;;;6.60;99.90;;;;;;5029205;28;20034;-74
2021/12/12 01:56:22;;;;;;;29.52;11.25;;;6.60;99.90;;;;;;5029372;28;20026;-74
2021/12/12 01:58:52;;;;;;;27.33;11.45;;;6.60;99.90;;;;;;5029064;28;20025;-74
2021/12/12 02:01:29;;;;;;;35.00;11.82;;;6.60;99.90;;;;;;5027604;28;20375;-74
2021/12/12 02:04:00;;;;;;;29.65;11.38;;;6.60;99.90;;;;;;5029842;28;20026;-74
2021/12/12 02:06:27;;;;;;;22.13;10.50;;;6.60;99.90;;;;;;5032255;28;20057;-74
2021/12/12 02:08:55;;;;;;;32.78;11.57;;;6.60;99.90;;;;;;5029066;28;20030;-74
2021/12/12 02:11:26;;;;;;;25.13;10.57;;;6.60;99.90;;;;;;5029258;28;20061;-74
2021/12/12 02:13:55;;;;;;;28.60;10.93;;;6.60;99.90;;;;;;5028359;28;20086;-74
2021/12/12 02:16:22;;;;;;;25.15;10.55;;;6.60;99.90;;;;;;5028728;28;20041;-74
2021/12/12 02:18:51;;;;;;;25.63;11.18;;;6.60;99.90;;;;;;5029003;28;20021;-74
2021/12/12 02:21:31;;;;;;;24.15;10.90;;;6.60;99.90;;;;;;5027417;28;20101;-74
2021/12/12 02:35:06;;;;;;;24.17;11.70;;;6.70;99.90;;;;;;5028712;28;20049;-74
2021/12/12 02:38:02;;;;;;;27.95;12.18;;;6.70;99.90;;;;;;5048455;28;20033;-74
2021/12/12 02:40:34;;;;;;;36.63;13.25;;;6.80;99.90;;;;;;5048260;28;20026;-74
2021/12/12 02:43:00;;;;;;;28.02;13.15;;;6.80;99.90;;;;;;5048177;28;20025;-73
2021/12/12 02:45:30;;;;;;;26.80;13.38;;;6.80;99.90;;;;;;5048249;28;20020;-74
2021/12/12 02:48:01;;;;;;;33.50;14.52;;;6.80;99.90;;;;;;5048152;28;20529;-74
2021/12/12 02:50:30;;;;;;;33.63;13.77;;;6.80;99.90;;;;;;5048429;28;20077;-74
2021/12/12 02:53:12;;;;;;;30.15;14.63;;;6.80;99.90;;;;;;5048067;28;20436;-75
2021/12/12 02:55:43;;;;;;;29.17;13.63;;;6.80;99.90;;;;;;5048030;28;20062;-74
2021/12/12 02:58:11;;;;;;;34.72;15.75;;;6.80;99.90;;;;;;5046755;28;20394;-75
2021/12/12 03:00:46;;;;;;;30.67;15.10;;;6.90;99.90;;;;;;5046798;28;20025;-74
2021/12/12 03:03:13;;;;;;;29.65;14.77;;;6.90;99.90;;;;;;5047850;28;20078;-75
2021/12/12 03:05:43;;;;;;;32.35;15.48;;;6.90;99.90;;;;;;5048207;28;20167;-75
2021/12/12 03:08:10;;;;;;;39.40;17.40;;;6.90;99.90;;;;;;5047753;28;20033;-75
2021/12/12 03:10:40;;;;;;;38.75;18.50;;;6.90;99.90;;;;;;5047774;28;20033;-75
2021/12/12 03:13:07;;;;;;;41.45;18.50;;;6.90;99.90;;;;;;5063323;28;20044;-75
2021/12/12 03:15:38;;;;;;;43.95;19.83;;;6.90;99.90;;;;;;5047842;28;20025;-75
2021/12/12 03:18:08;;;;;;;47.58;20.13;;;6.90;99.90;;;;;;5047813;28;20029;-75
2021/12/12 03:20:38;;;;;;;44.00;21.00;;;7.00;99.90;;;;;;5047764;28;20021;-75
2021/12/12 03:23:09;;;;;;;40.83;20.90;;;7.00;99.90;;;;;;5047797;28;20025;-75
2021/12/12 03:25:38;;;;;;;45.10;21.65;;;7.00;99.90;;;;;;5046703;28;20027;-75
2021/12/12 03:28:06;;;;;;;40.70;21.92;;;7.10;99.90;;;;;;5047576;28;20029;-74
2021/12/12 03:30:32;;;;;;;45.67;22.23;;;7.10;99.90;;;;;;5028155;28;20092;-75
2021/12/12 03:32:58;;;;;;;44.92;22.63;;;7.10;99.90;;;;;;5027387;28;20040;-74
2021/12/12 03:35:26;;;;;;;45.13;22.55;;;7.10;99.90;;;;;;5027920;28;20025;-75
2021/12/12 03:37:52;;;;;;;49.20;24.15;;;7.10;99.90;;;;;;5027549;28;20029;-75
2021/12/12 03:40:22;;;;;;;51.90;23.98;;;7.20;99.90;;;;;;5027399;28;20025;-75
2021/12/12 03:42:52;;;;;;;48.85;24.63;;;7.20;99.90;;;;;;5027547;28;20025;-75
2021/12/12 03:45:18;;;;;;;43.15;23.60;;;7.20;99.90;;;;;;5027932;28;20014;-75
2021/12/12 03:47:52;;;;;;;45.03;23.80;;;7.20;99.90;;;;;;5027532;28;20090;-75
2021/12/12 03:50:29;;;;;;;50.13;25.08;;;7.30;99.90;;;;;;5027506;28;20037;-75
2021/12/12 03:52:55;;;;;;;48.72;25.45;;;7.30;99.90;;;;;;5027568;28;20030;-75
2021/12/12 03:55:22;;;;;;;49.08;25.02;;;7.30;99.90;;;;;;5027353;28;20471;-75
2021/12/12 03:57:48;;;;;;;55.92;27.35;;;7.30;99.90;;;;;;5027826;28;20028;-75
2021/12/12 04:00:25;;;;;;;55.45;27.35;;;7.40;99.90;;;;;;5027142;28;20026;-75
2021/12/12 04:02:51;;;;;;;60.63;27.52;;;7.40;99.90;;;;;;5027426;28;20022;-75
2021/12/12 04:05:17;;;;;;;58.97;27.95;;;7.40;99.90;;;;;;5027058;28;20646;-75
2021/12/12 04:07:43;;;;;;;52.78;27.10;;;7.40;99.90;;;;;;5027230;28;20475;-75
2021/12/12 04:10:12;;;;;;;54.63;28.33;;;7.40;99.90;;;;;;5027037;28;20026;-75
2021/12/12 04:12:38;;;;;;;53.80;27.45;;;7.40;99.90;;;;;;5027007;28;20029;-75
2021/12/12 04:15:05;;;;;;;57.97;28.60;;;7.40;99.90;;;;;;5027172;28;20113;-75
2021/12/12 04:17:31;;;;;;;54.42;28.65;;;7.40;99.90;;;;;;5027052;28;20454;-75
2021/12/12 04:20:01;;;;;;;58.13;29.20;;;7.40;99.90;;;;;;5026930;28;20367;-75
2021/12/12 04:22:26;;;;;;;54.15;29.38;;;7.50;99.90;;;;;;5026987;28;20030;-75
2021/12/12 04:24:55;;;;;;;65.13;31.92;;;7.50;99.90;;;;;;5026977;28;20101;-75
2021/12/12 04:27:23;;;;;;;61.42;31.92;;;7.50;99.90;;;;;;5027158;28;20479;-75
2021/12/12 04:29:50;;;;;;;68.43;31.17;;;7.50;99.90;;;;;;5039990;28;20474;-75
2021/12/12 04:32:23;;;;;;;66.80;32.95;;;7.50;99.90;;;;;;5046644;28;20517;-75
2021/12/12 04:34:57;;;;;;;66.18;33.28;;;7.50;99.90;;;;;;5046660;28;20116;-74
2021/12/12 04:37:24;;;;;;;72.95;33.25;;;7.60;99.90;;;;;;5048411;28;20025;-74
2021/12/12 04:39:52;;;;;;;77.00;35.05;;;7.60;99.90;;;;;;5050004;28;20028;-75
2021/12/12 04:42:30;;;;;;;81.03;34.85;;;7.60;99.90;;;;;;5050275;28;20023;-75
2021/12/12 04:45:11;;;;;;;79.57;33.97;;;7.60;99.90;;;;;;5050171;28;20112;-75
2021/12/12 04:50:44;;;;;;;80.05;35.50;;;7.70;99.90;;;;;;5049924;28;20027;-75
2021/12/12 04:53:18;;;;;;;78.45;33.63;;;7.70;99.90;;;;;;5049979;28;20046;-73
2021/12/12 04:55:51;;;;;;;78.35;34.17;;;7.70;99.90;;;;;;5049964;27;20029;-74
2021/12/12 04:58:29;;;;;;;84.53;34.80;;;7.70;99.90;;;;;;5048633;28;20052;-74
2021/12/12 05:00:57;;;;;;;82.07;36.10;;;7.70;99.90;;;;;;5049873;27;20029;-74
2021/12/12 05:03:33;;;;;;;89.07;35.35;;;7.80;99.90;;;;;;5049805;28;20029;-74
2021/12/12 05:06:28;;;;;;;88.50;35.35;;;7.80;99.90;;;;;;5049667;28;20482;-74
2021/12/12 05:09:06;;;;;;;81.55;36.00;;;7.80;99.90;;;;;;5054669;28;20366;-74
2021/12/12 05:11:51;;;;;;;85.82;36.72;;;7.80;99.90;;;;;;5049626;28;20082;-74
2021/12/12 05:14:22;;;;;;;76.68;35.28;;;7.80;99.90;;;;;;5050270;28;20402;-74
2021/12/12 05:16:53;;;;;;;89.45;37.13;;;7.80;99.90;;;;;;5048126;28;20032;-74
2021/12/12 05:19:23;;;;;;;86.95;36.17;;;7.80;99.90;;;;;;5049519;28;20029;-74
2021/12/12 05:21:54;;;;;;;85.43;36.10;;;7.80;99.90;;;;;;5049452;28;20493;-74
2021/12/12 05:24:22;;;;;;;96.60;38.03;;;7.90;99.90;;;;;;5049452;28;20067;-74
2021/12/12 05:26:50;;;;;;;84.80;38.00;;;7.90;99.90;;;;;;5064422;28;20045;-74
2021/12/12 05:29:31;;;;;;;94.47;38.13;;;7.90;99.90;;;;;;5040931;28;20074;-74
2021/12/12 05:32:00;;;;;;;101.90;40.53;;;7.90;99.90;;;;;;5028207;28;20478;-74
2021/12/12 05:34:32;;;;;;;92.45;39.05;;;7.90;99.90;;;;;;5029534;28;20074;-74
2021/12/12 05:37:01;;;;;;;102.13;39.42;;;7.90;99.90;;;;;;5029237;28;20108;-74
2021/12/12 05:39:28;;;;;;;108.68;42.08;;;7.90;99.90;;;;;;5029378;28;20018;-74
2021/12/12 05:41:54;;;;;;;98.03;41.08;;;8.00;99.90;;;;;;5029165;28;20025;-74
2021/12/12 05:44:23;;;;;;;98.07;40.58;;;8.00;99.90;;;;;;5027798;28;20061;-75
2021/12/12 05:46:49;;;;;;;110.95;39.90;;;8.00;99.90;;;;;;5029347;28;20048;-74
2021/12/12 05:49:15;;;;;;;103.65;42.83;;;8.00;99.90;;;;;;5028428;28;20475;-74
2021/12/12 05:51:41;;;;;;;104.55;42.10;;;8.00;99.90;;;;;;5028986;28;20104;-74
2021/12/12 05:54:07;;;;;;;103.43;44.03;;;8.00;99.90;;;;;;5029154;28;20104;-74
2021/12/12 05:56:36;;;;;;;101.53;42.92;;;8.00;99.90;;;;;;5029262;28;20033;-74
2021/12/12 05:59:04;;;;;;;99.68;42.65;;;8.00;99.90;;;;;;5029041;28;20061;-74
2021/12/12 06:01:31;;;;;;;113.15;43.35;;;8.00;99.90;;;;;;5027733;28;20032;-74
2021/12/12 06:03:56;;;;;;;115.35;42.35;;;8.10;99.90;;;;;;5027697;28;20025;-74
2021/12/12 06:06:30;;;;;;;115.35;41.75;;;8.10;99.90;;;;;;5029053;28;20061;-74
2021/12/12 06:08:59;;;;;;;101.05;39.90;;;8.10;99.90;;;;;;5028909;28;20028;-74
2021/12/12 06:11:27;;;;;;;118.00;43.58;;;8.20;99.90;;;;;;5028635;28;20052;-74
2021/12/12 06:13:54;;;;;;;108.97;41.40;;;8.20;99.90;;;;;;5028764;28;20029;-74
2021/12/12 06:16:21;;;;;;;110.45;43.63;;;8.20;99.90;;;;;;5028654;28;20034;-74
2021/12/12 06:19:04;;;;;;;118.30;42.47;;;8.30;99.90;;;;;;5028810;28;20492;-74
2021/12/12 06:21:30;;;;;;;115.00;42.47;;;8.30;99.90;;;;;;5028670;28;20026;-75
2021/12/12 06:23:57;;;;;;;117.20;42.25;;;8.30;99.90;;;;;;5028555;28;20026;-74
2021/12/12 06:26:23;;;;;;;123.82;41.90;;;8.30;99.90;;;;;;5028414;28;20046;-74
2021/12/12 06:28:49;;;;;;;115.20;41.28;;;8.30;99.90;;;;;;5033549;28;20413;-72
2021/12/12 06:31:15;;;;;;;128.90;41.83;;;8.30;99.90;;;;;;5048459;28;20065;-74
2021/12/12 06:33:42;;;;;;;115.20;41.50;;;8.30;99.90;;;;;;5048390;28;20551;-75
2021/12/12 06:36:11;;;;;;;116.63;40.50;;;8.30;99.90;;;;;;5048304;28;20028;-74
2021/12/12 06:38:39;;;;;;;124.50;40.47;;;8.30;99.90;;;;;;5048236;28;20057;-75
2021/12/12 06:41:07;;;;;;;129.10;40.78;;;8.40;99.90;;;;;;5048244;28;20035;-74
2021/12/12 06:43:34;;;;;;;117.45;40.00;;;8.40;99.90;;;;;;5048235;28;20025;-74
2021/12/12 06:46:00;;;;;;;124.68;41.70;;;8.40;99.90;;;;;;5048080;28;20025;-74
2021/12/12 06:48:27;;;;;;;129.73;40.90;;;8.40;99.90;;;;;;5048484;28;20028;-74
2021/12/12 06:50:54;;;;;;;128.35;42.08;;;8.50;99.90;;;;;;5063291;27;20047;-74
2021/12/12 06:53:24;;;;;;;135.80;44.05;;;8.50;99.90;;;;;;5047948;28;20032;-74
2021/12/12 06:55:51;;;;;;;142.52;44.10;;;8.50;99.90;;;;;;5048512;28;20383;-74
2021/12/12 06:58:18;;;;;;;136.10;43.70;;;8.50;99.90;;;;;;5048017;28;20020;-74
2021/12/12 07:00:48;;;;;;;129.65;43.92;;;8.50;99.90;;;;;;5048116;28;20077;-74
2021/12/12 07:03:16;;;;;;;134.93;45.53;;;8.50;99.90;;;;;;5047901;28;20021;-74
2021/12/12 07:05:42;;;;;;;125.18;44.08;;;8.50;99.90;;;;;;5048246;28;20040;-74
2021/12/12 07:08:08;;;;;;;140.02;42.63;;;8.60;99.90;;;;;;5047733;27;20017;-74
2021/12/12 07:10:34;;;;;;;126.88;43.78;;;8.60;99.90;;;;;;5047886;27;20033;-75
2021/12/12 07:13:00;;;;;;;118.10;44.25;;;8.60;99.90;;;;;;5047652;28;20033;-74
2021/12/12 07:15:30;;;;;;;144.00;43.75;;;8.60;99.90;;;;;;5047779;28;20021;-74
2021/12/12 07:17:58;;;;;;;124.47;42.22;;;8.60;99.90;;;;;;5047545;28;20165;-74
2021/12/12 07:20:26;;;;;;;142.88;43.20;;;8.70;99.90;;;;;;5047709;28;20017;-74
2021/12/12 07:22:52;;;;;;;141.65;41.95;;;8.70;99.90;;;;;;5047539;28;20017;-74
2021/12/12 07:25:19;;;;;;;133.10;43.25;;;8.70;99.90;;;;;;5047749;27;20359;-74
2021/12/12 07:27:45;;;;;;;138.30;43.42;;;8.70;99.90;;;;;;5047678;27;20492;-74
2021/12/12 07:30:12;;;;;;;136.35;41.92;;;8.70;99.90;;;;;;5030922;27;20101;-75
2021/12/12 07:32:38;;;;;;;124.40;40.53;;;8.70;99.90;;;;;;5026531;28;20030;-74
2021/12/12 07:35:13;;;;;;;129.95;40.60;;;8.70;99.90;;;;;;5024782;28;20033;-74
2021/12/12 07:37:40;;;;;;;137.57;42.65;;;8.80;99.90;;;;;;5025372;28;20421;-74
2021/12/12 07:40:08;;;;;;;132.52;41.05;;;8.80;99.90;;;;;;5025643;28;20022;-75
2021/12/12 07:42:34;;;;;;;133.43;42.60;;;8.80;99.90;;;;;;5024767;28;20481;-75
2021/12/12 07:45:01;;;;;;;129.25;41.63;;;8.80;99.90;;;;;;5023734;28;20037;-75
2021/12/12 07:47:28;;;;;;;133.50;43.80;;;8.80;99.90;;;;;;5023524;28;20533;-76
2021/12/12 07:50:00;;;;;;;131.55;40.10;;;8.80;99.90;;;;;;5027467;28;20059;-75
2021/12/12 07:52:28;;;;;;;132.40;41.42;;;8.80;99.90;;;;;;5023656;28;20401;-74
2021/12/12 07:54:56;;;;;;;131.10;41.05;;;8.80;99.90;;;;;;5024499;28;20100;-75
2021/12/12 07:57:24;;;;;;;146.80;43.00;;;8.90;99.90;;;;;;5023365;28;20032;-75
2021/12/12 07:59:50;;;;;;;131.32;41.75;;;8.90;99.90;;;;;;5024032;28;20034;-74
2021/12/12 08:02:19;;;;;;;150.40;43.03;;;8.90;99.90;;;;;;5027116;28;20032;-75
2021/12/12 08:04:45;;;;;;;133.95;41.53;;;8.90;99.90;;;;;;5025887;28;20030;-74
2021/12/12 08:07:14;;;;;;;155.32;43.10;;;8.90;99.90;;;;;;5026851;28;20108;-74
2021/12/12 08:09:42;;;;;;;136.27;42.42;;;8.90;99.90;;;;;;5024330;28;20463;-74
2021/12/12 08:12:11;;;;;;;144.52;41.65;;;8.90;99.90;;;;;;5028939;28;20025;-74
2021/12/12 08:14:37;;;;;;;147.02;41.50;;;8.90;99.90;;;;;;5029010;28;20013;-74
2021/12/12 08:17:04;;;;;;;139.68;41.40;;;9.00;99.90;;;;;;5029100;28;20381;-75
2021/12/12 08:19:30;;;;;;;153.15;42.78;;;9.00;99.90;;;;;;5037142;28;20037;-75
2021/12/12 08:22:01;;;;;;;151.23;42.13;;;9.00;99.90;;;;;;5038715;28;20543;-74
2021/12/12 08:24:27;;;;;;;142.18;39.67;;;9.00;99.90;;;;;;5038636;28;20014;-74
2021/12/12 08:26:55;;;;;;;134.13;39.88;;;9.00;99.90;;;;;;5043971;28;20045;-73
2021/12/12 08:29:21;;;;;;;135.00;39.45;;;9.00;99.90;;;;;;5042879;28;20422;-74
2021/12/12 08:31:47;;;;;;;140.45;38.88;;;9.00;99.90;;;;;;5044802;28;20026;-73
2021/12/12 08:34:14;;;;;;;144.98;40.42;;;9.10;99.90;;;;;;5040693;27;20032;-74
2021/12/12 08:36:45;;;;;;;130.13;39.03;;;9.10;99.90;;;;;;5035763;28;20021;-74
2021/12/12 08:39:12;;;;;;;117.22;37.75;;;9.10;99.90;;;;;;5037043;28;20381;-73
2021/12/12 08:41:38;;;;;;;126.05;36.40;;;9.10;99.90;;;;;;5037123;28;20104;-75
2021/12/12 08:44:06;;;;;;;119.30;37.17;;;9.10;99.90;;;;;;5033125;28;20113;-74
2021/12/12 08:46:32;;;;;;;105.68;35.97;;;9.10;99.90;;;;;;5029513;28;20406;-75
2021/12/12 08:49:01;;;;;;;111.60;36.00;;;9.10;99.90;;;;;;5037129;28;20029;-74
2021/12/12 08:51:37;;;;;;;94.38;34.25;;;9.10;99.90;;;;;;5034930;28;20033;-74
2021/12/12 08:54:14;;;;;;;97.45;32.70;;;9.10;99.90;;;;;;5043776;28;20041;-74
2021/12/12 08:56:47;;;;;;;90.30;34.03;;;9.10;99.90;;;;;;5050194;28;20021;-73
2021/12/12 08:59:20;;;;;;;76.32;29.52;;;9.20;99.90;;;;;;5049998;28;20074;-74
2021/12/12 09:01:47;;;;;;;71.70;28.98;;;9.20;99.90;;;;;;5049979;28;20069;-74
2021/12/12 09:04:14;;;;;;;69.47;27.77;;;9.20;99.90;;;;;;5050027;28;20474;-74
2021/12/12 09:06:48;;;;;;;77.13;27.77;;;9.20;99.90;;;;;;5050148;28;20013;-74
2021/12/12 09:09:20;;;;;;;64.57;26.85;;;9.20;99.90;;;;;;5035962;28;20603;-74
2021/12/12 09:11:54;;;;;;;59.55;25.20;;;9.30;99.90;;;;;;5045105;28;20033;-74
2021/12/12 09:14:57;;;;;;;61.27;25.67;;;9.30;99.90;;;;;;5029836;28;20600;-73
2021/12/12 09:17:39;;;;;;;51.85;24.58;;;9.30;99.90;;;;;;5050204;28;20026;-73
2021/12/12 09:20:16;;;;;;;58.25;23.98;;;9.40;99.90;;;;;;5029724;28;20080;-74
2021/12/12 09:22:55;;;;;;;56.40;23.58;;;9.40;99.90;;;;;;5046804;28;20017;-73
2021/12/12 09:25:36;;;;;;;57.55;24.83;;;9.40;99.90;;;;;;5049265;28;20029;-73
2021/12/12 09:28:08;;;;;;;51.83;23.85;;;9.40;99.90;;;;;;5049888;28;20485;-73
2021/12/12 09:30:35;;;;;;;54.60;24.50;;;9.40;99.90;;;;;;5044526;28;20021;-73
2021/12/12 09:33:11;;;;;;;59.70;24.63;;;9.40;99.90;;;;;;5036660;28;20386;-73
2021/12/12 09:35:52;;;;;;;57.33;25.02;;;9.50;99.90;;;;;;5039522;28;20025;-74
2021/12/12 09:38:22;;;;;;;57.67;24.90;;;9.50;99.90;;;;;;5031053;28;20048;-74
2021/12/12 09:40:47;;;;;;;53.80;24.05;;;9.50;99.90;;;;;;5027915;28;20018;-73
2021/12/12 09:43:37;;;;;;;59.78;25.05;;;9.50;99.90;;;;;;5044040;27;20037;-73
2021/12/12 09:46:06;;;;;;;57.05;25.33;;;9.50;99.90;;;;;;5028080;28;20030;-73
2021/12/12 09:51:58;;;;;;;48.85;24.27;;;9.50;99.90;;;;;;5030495;28;20093;-75
2021/12/12 09:54:34;;;;;;;55.53;25.42;;;9.50;99.90;;;;;;5030081;28;20040;-74
2021/12/12 09:57:22;;;;;;;55.83;25.23;;;9.50;99.90;;;;;;5029257;28;20115;-73
2021/12/12 10:00:12;;;;;;;45.65;22.70;;;9.50;99.90;;;;;;5029270;28;20453;-74
2021/12/12 10:03:00;;;;;;;47.83;22.98;;;9.60;99.90;;;;;;5030378;28;20427;-74
2021/12/12 10:05:50;;;;;;;46.75;23.05;;;9.60;99.90;;;;;;5027713;28;20018;-74
2021/12/12 10:08:37;;;;;;;53.13;25.25;;;9.60;99.90;;;;;;5028040;28;20038;-75
2021/12/12 10:11:10;;;;;;;53.70;23.70;;;9.60;99.90;;;;;;5031321;28;20446;-74
2021/12/12 10:13:56;;;;;;;50.42;24.10;;;9.60;99.90;;;;;;5028080;28;20033;-74
2021/12/12 10:16:42;;;;;;;52.50;24.60;;;9.70;99.90;;;;;;5037387;28;20017;-74
2021/12/12 10:19:26;;;;;;;;;;;9.70;99.90;;;;;;5048998;27;20465;-74
2021/12/12 10:22:13;;;;;;;50.00;23.15;;;9.70;99.90;;;;;;5042680;28;19947;-74
2021/12/12 10:25:15;;;;;;;51.38;23.27;;;9.70;99.90;;;;;;5046055;28;20423;-74
2021/12/12 10:27:49;;;;;;;51.47;22.98;;;9.70;99.90;;;;;;5043532;27;20420;-74
2021/12/12 10:30:18;;;;;;;53.58;24.05;;;9.80;99.90;;;;;;5041807;28;20060;-75
2021/12/12 10:33:03;;;;;;;48.85;22.35;;;9.80;99.90;;;;;;5047467;28;20025;-74
2021/12/12 10:35:58;;;;;;;49.10;22.83;;;9.80;99.90;;;;;;5034637;28;20030;-74
2021/12/12 10:38:57;;;;;;;45.83;21.88;;;9.90;99.90;;;;;;5027317;28;20340;-74
2021/12/12 10:41:35;;;;;;;45.70;21.85;;;9.90;99.90;;;;;;5028793;28;20032;-75
2021/12/12 10:44:19;;;;;;;46.28;20.98;;;9.90;99.90;;;;;;5028557;28;20340;-74
2021/12/12 10:47:23;;;;;;;42.15;19.17;;;9.90;99.90;;;;;;5026887;28;20042;-75
2021/12/12 10:50:10;;;;;;;40.28;18.58;;;9.90;99.90;;;;;;5028424;28;20059;-74
2021/12/12 10:53:05;;;;;;;37.15;17.90;;;10.00;99.90;;;;;;5027671;28;20033;-73
2021/12/12 10:55:43;;;;;;;36.25;17.60;;;10.00;99.90;;;;;;5027330;28;20060;-73
2021/12/12 10:58:19;;;;;;;35.70;16.70;;;10.00;99.90;;;;;;5042139;28;20470;-74
2021/12/12 11:00:50;;;;;;;34.92;19.25;;;10.00;99.90;;;;;;5025625;28;20076;-74
2021/12/12 11:03:33;;;;;;;32.55;16.20;;;10.00;99.90;;;;;;5023303;28;20029;-73
2021/12/12 11:06:04;;;;;;;28.90;13.60;;;10.10;99.90;;;;;;5025604;28;20390;-74
2021/12/12 11:08:41;;;;;;;29.08;14.43;;;10.10;99.90;;;;;;5026643;28;20513;-74
2021/12/12 11:11:15;;;;;;;26.95;13.80;;;10.10;99.90;;;;;;5026324;28;20091;-74
2021/12/12 11:14:07;;;;;;;25.33;13.80;;;10.10;99.90;;;;;;5026901;28;20025;-75
2021/12/12 11:16:51;;;;;;;24.92;12.90;;;10.10;99.90;;;;;;5043333;28;20029;-75
2021/12/12 11:19:26;;;;;;;21.88;12.75;;;10.10;99.90;;;;;;5026659;28;20044;-75
2021/12/12 11:22:04;;;;;;;22.38;12.13;;;10.10;99.90;;;;;;5026952;28;20013;-74
2021/12/12 11:24:37;;;;;;;22.15;12.32;;;10.20;99.90;;;;;;5027699;28;20137;-75
2021/12/12 11:27:08;;;;;;;19.00;10.73;;;10.20;99.90;;;;;;5028023;28;20041;-74
2021/12/12 11:29:45;;;;;;;22.23;11.48;;;10.20;99.90;;;;;;5027795;28;20058;-75
2021/12/12 11:32:16;;;;;;;21.42;11.68;;;10.20;99.90;;;;;;5028272;28;20038;-75
2021/12/12 11:34:46;;;;;;;20.13;11.15;;;10.20;99.90;;;;;;5028494;28;20456;-75
2021/12/12 11:37:48;;;;;;;17.08;10.18;;;10.20;99.90;;;;;;5028129;28;20033;-75
2021/12/12 11:40:23;;;;;;;18.27;10.20;;;10.20;99.90;;;;;;5027964;28;20060;-74
2021/12/12 11:43:07;;;;;;;;;;;10.20;99.90;;;;;;5027979;28;20022;-75
2021/12/12 11:45:42;;;;;;;16.08;9.65;;;10.20;99.90;;;;;;5042537;28;19906;-74
2021/12/12 11:48:24;;;;;;;18.17;9.68;;;10.30;99.90;;;;;;5026619;28;20033;-75
2021/12/12 11:51:03;;;;;;;16.42;9.65;;;10.30;99.90;;;;;;5030439;28;20017;-74
2021/12/12 11:53:50;;;;;;;16.85;9.60;;;10.30;99.90;;;;;;5036099;28;20069;-74
2021/12/12 11:56:30;;;;;;;15.00;9.18;;;10.30;99.90;;;;;;5033449;28;20029;-75
2021/12/12 11:59:31;;;;;;;15.05;9.05;;;10.30;99.90;;;;;;5034449;28;20085;-75
2021/12/12 12:02:15;;;;;;;15.13;9.32;;;10.30;99.90;;;;;;5032549;28;20045;-75
2021/12/12 12:05:18;;;;;;;17.05;9.68;;;10.40;99.90;;;;;;5028286;28;20425;-75
2021/12/12 12:07:51;;;;;;;17.13;10.00;;;10.40;99.90;;;;;;5028416;28;20021;-74
2021/12/12 12:10:49;;;;;;;19.02;10.48;;;10.40;99.90;;;;;;5027902;28;20032;-75
2021/12/12 12:13:33;;;;;;;20.75;10.07;;;10.40;99.90;;;;;;5031993;28;20626;-75
2021/12/12 12:16:16;;;;;;;24.98;11.45;;;10.50;99.90;;;;;;5025895;28;20078;-75
2021/12/12 12:18:54;;;;;;;22.48;11.68;;;10.50;99.90;;;;;;5042223;28;20041;-75
2021/12/12 12:21:51;;;;;;;24.48;12.35;;;10.50;99.90;;;;;;5032825;28;20017;-75
2021/12/12 12:24:40;;;;;;;33.15;13.07;;;10.60;99.90;;;;;;5046750;28;20445;-74
2021/12/12 12:27:17;;;;;;;29.80;13.85;;;10.60;99.90;;;;;;5046992;28;20057;-75
2021/12/12 12:30:01;;;;;;;34.15;14.35;;;10.60;99.90;;;;;;5047410;28;20096;-75
2021/12/12 12:33:04;;;;;;;34.45;15.52;;;10.70;99.90;;;;;;5047237;28;20029;-75
2021/12/12 12:36:01;;;;;;;41.28;16.40;;;10.70;99.90;;;;;;5044536;27;20105;-75
2021/12/12 12:39:06;;;;;;;44.88;16.60;;;10.70;99.90;;;;;;5036098;28;20040;-75
2021/12/12 12:41:50;;;;;;;40.17;16.65;;;10.80;99.90;;;;;;5032386;28;20021;-74
2021/12/12 12:44:30;;;;;;;40.58;15.35;;;10.90;99.90;;;;;;5026751;28;20044;-75
2021/12/12 12:47:21;;;;;;;42.85;14.75;;;10.90;99.90;;;;;;5030052;28;20024;-75
2021/12/12 12:50:24;;;;;;;46.72;15.43;;;10.90;99.90;;;;;;5035691;27;20056;-74
2021/12/12 12:53:27;;;;;;;40.92;15.90;;;11.00;99.90;;;;;;5043191;28;20455;-74
2021/12/12 12:56:28;;;;;;;43.13;16.85;;;11.00;99.90;;;;;;5049428;27;20117;-74
2021/12/12 12:59:28;;;;;;;51.50;16.77;;;11.10;99.90;;;;;;5028028;28;20100;-75
2021/12/12 13:02:04;;;;;;;43.63;16.92;;;11.10;99.90;;;;;;5040780;28;20512;-75
2021/12/12 13:04:39;;;;;;;51.30;17.35;;;11.10;99.90;;;;;;5034694;28;20025;-73
2021/12/12 13:07:33;;;;;;;46.58;15.52;;;11.10;99.90;;;;;;5031243;28;20076;-74
2021/12/12 13:10:06;;;;;;;47.10;16.27;;;11.10;99.90;;;;;;5030610;27;20029;-75
2021/12/12 13:12:57;;;;;;;38.95;15.00;;;11.10;99.90;;;;;;5030077;28;20105;-75
2021/12/12 13:15:32;;;;;;;54.95;16.60;;;11.10;99.90;;;;;;5030381;28;20030;-74
2021/12/12 13:18:18;;;;;;;40.20;14.82;;;11.10;99.90;;;;;;5030082;28;20033;-74
2021/12/12 13:21:19;;;;;;;44.55;15.32;;;11.10;99.90;;;;;;5031032;28;20398;-74
2021/12/12 13:24:18;;;;;;;55.65;16.52;;;11.10;99.90;;;;;;5050008;28;20029;-74
2021/12/12 13:27:13;;;;;;;42.67;15.00;;;11.10;99.90;;;;;;5093664;28;20035;-75